Time;durP1;ratioP1;P1;durP2;ratioP2;P2;SDS_P1;SDS_P2;PMS_P1;PMS_P2;Temp;Humidity;BMP_temperature;BMP_pressure;BME280_temperature;BME280_humidity;BME280_pressure;Samples;Min_cycle;Max_cycle;Signal;HPM_P1;HPM_P2
2024/04/04 00:00:48;;;;;;;6.60;2.00;;;;;;;;;;103730;1289;544788;-70
2024/04/04 00:04:29;;;;;;;6.70;2.00;;;;;;;;;;103807;1293;544785;-70
2024/04/04 00:08:04;;;;;;;5.50;1.80;;;;;;;;;;103839;1292;544761;-71
2024/04/04 00:11:42;;;;;;;4.70;1.70;;;;;;;;;;103852;1296;545362;-72
2024/04/04 00:15:19;;;;;;;5.20;2.00;;;;;;;;;;104099;1285;545955;-71
2024/04/04 00:18:56;;;;;;;6.40;1.70;;;;;;;;;;103746;1291;545630;-71
2024/04/04 00:22:33;;;;;;;5.30;1.90;;;;;;;;;;103709;1289;546154;-72
2024/04/04 00:26:11;;;;;;;5.50;1.60;;;;;;;;;;103821;1292;544855;-70
2024/04/04 00:29:49;;;;;;;6.40;1.90;;;;;;;;;;103618;1293;545281;-72
2024/04/04 00:33:27;;;;;;;6.20;2.00;;;;;;;;;;103530;1295;545061;-71
2024/04/04 00:37:06;;;;;;;6.00;1.70;;;;;;;;;;103792;1289;544737;-72
2024/04/04 00:40:41;;;;;;;6.10;1.90;;;;;;;;;;104040;1287;545926;-70
2024/04/04 00:44:19;;;;;;;7.80;2.20;;;;;;;;;;104384;1285;544873;-71
2024/04/04 00:47:56;;;;;;;6.00;2.40;;;;;;;;;;103648;1301;544981;-71
2024/04/04 00:51:34;;;;;;;8.40;2.60;;;;;;;;;;103795;1292;545925;-71
2024/04/04 00:55:10;;;;;;;5.60;2.50;;;;;;;;;;103827;1289;544951;-70
2024/04/04 00:58:49;;;;;;;6.00;2.20;;;;;;;;;;103764;1290;545087;-70
2024/04/04 01:02:26;;;;;;;6.30;2.20;;;;;;;;;;104118;1285;544787;-71
2024/04/04 01:05:59;;;;;;;7.10;2.50;;;;;;;;;;103654;1292;545473;-71
2024/04/04 01:09:40;;;;;;;7.50;2.70;;;;;;;;;;103881;1297;545558;-71
2024/04/04 01:13:18;;;;;;;6.40;2.80;;;;;;;;;;103754;1294;545709;-71
2024/04/04 01:16:55;;;;;;;7.50;3.00;;;;;;;;;;103926;1292;544974;-71
2024/04/04 01:20:33;;;;;;;8.50;3.60;;;;;;;;;;103671;1292;544778;-71
2024/04/04 01:24:11;;;;;;;7.20;3.10;;;;;;;;;;103894;1292;545284;-71
2024/04/04 01:27:49;;;;;;;7.90;2.90;;;;;;;;;;103747;1291;545350;-71
2024/04/04 01:31:26;;;;;;;9.00;4.10;;;;;;;;;;103683;1295;546433;-70
2024/04/04 01:35:04;;;;;;;8.70;3.90;;;;;;;;;;103536;1293;544846;-71
2024/04/04 01:38:41;;;;;;;9.30;4.60;;;;;;;;;;103840;1289;545956;-70
2024/04/04 01:42:19;;;;;;;9.30;4.60;;;;;;;;;;103691;1292;545036;-70
2024/04/04 01:45:56;;;;;;;8.80;3.70;;;;;;;;;;103643;1289;545065;-71
2024/04/04 01:49:34;;;;;;;7.50;3.40;;;;;;;;;;103637;1291;545005;-70
2024/04/04 01:53:11;;;;;;;11.40;3.60;;;;;;;;;;103611;1302;545687;-73
2024/04/04 01:56:49;;;;;;;9.20;3.40;;;;;;;;;;103728;1295;544839;-70
2024/04/04 02:00:28;;;;;;;9.50;3.80;;;;;;;;;;103885;1296;544943;-71
2024/04/04 02:04:04;;;;;;;9.20;3.40;;;;;;;;;;103550;1292;544997;-72
2024/04/04 02:07:41;;;;;;;8.90;3.50;;;;;;;;;;104539;1283;544774;-71
2024/04/04 02:11:19;;;;;;;8.60;4.00;;;;;;;;;;103658;1292;544974;-70
2024/04/04 02:14:56;;;;;;;9.40;4.70;;;;;;;;;;103970;1289;544904;-71
2024/04/04 02:18:33;;;;;;;7.60;3.80;;;;;;;;;;103655;1295;545723;-71
2024/04/04 02:22:11;;;;;;;8.40;3.70;;;;;;;;;;103464;1295;544992;-70
2024/04/04 02:25:48;;;;;;;7.60;3.80;;;;;;;;;;103799;1289;545405;-72
2024/04/04 02:29:25;;;;;;;9.50;4.00;;;;;;;;;;103878;1292;545610;-71
2024/04/04 02:33:04;;;;;;;7.30;3.80;;;;;;;;;;103646;1291;544849;-71
2024/04/04 02:36:41;;;;;;;7.60;4.10;;;;;;;;;;104372;1295;544840;-71
2024/04/04 02:40:18;;;;;;;8.10;4.30;;;;;;;;;;103573;1291;545851;-71
2024/04/04 02:43:56;;;;;;;9.30;4.60;;;;;;;;;;103764;1293;545754;-71
2024/04/04 02:47:34;;;;;;;8.10;4.50;;;;;;;;;;103867;1290;545491;-70
2024/04/04 02:51:11;;;;;;;8.00;4.10;;;;;;;;;;103756;1290;544973;-70
2024/04/04 02:54:52;;;;;;;8.40;4.40;;;;;;;;;;103661;1292;544785;-71
2024/04/04 02:58:26;;;;;;;7.50;4.40;;;;;;;;;;104413;1285;544809;-70
2024/04/04 03:02:03;;;;;;;9.80;5.00;;;;;;;;;;103864;1292;544945;-71
2024/04/04 03:05:41;;;;;;;8.10;4.80;;;;;;;;;;104141;1285;545040;-71
2024/04/04 03:09:18;;;;;;;9.00;4.90;;;;;;;;;;103801;1292;545526;-71
2024/04/04 03:12:51;;;;;;;8.20;5.20;;;;;;;;;;103779;1292;544973;-69
2024/04/04 03:16:29;;;;;;;9.00;5.30;;;;;;;;;;103619;1291;547117;-70
2024/04/04 03:20:10;;;;;;;10.50;5.60;;;;;;;;;;103790;1292;546358;-71
2024/04/04 03:23:48;;;;;;;9.90;5.90;;;;;;;;;;103463;1294;545490;-70
2024/04/04 03:27:25;;;;;;;8.70;5.70;;;;;;;;;;103661;1292;544950;-70
2024/04/04 03:31:03;;;;;;;9.40;5.40;;;;;;;;;;103735;1289;546135;-71
2024/04/04 03:34:36;;;;;;;8.90;5.40;;;;;;;;;;104309;1286;545697;-71
2024/04/04 03:38:17;;;;;;;9.40;6.20;;;;;;;;;;103747;1291;544947;-71
2024/04/04 03:41:55;;;;;;;9.50;6.00;;;;;;;;;;103533;1295;545980;-71
2024/04/04 03:45:39;;;;;;;9.80;5.30;;;;;;;;;;103626;1291;545077;-72
2024/04/04 03:49:10;;;;;;;10.00;5.30;;;;;;;;;;104049;1286;545441;-72
2024/04/04 03:52:48;;;;;;;9.30;5.20;;;;;;;;;;103703;1289;545508;-72
2024/04/04 03:56:21;;;;;;;14.40;5.70;;;;;;;;;;103892;1289;544786;-70
2024/04/04 04:00:06;;;;;;;13.70;6.20;;;;;;;;;;103848;1292;544843;-71
2024/04/04 04:03:40;;;;;;;10.90;6.00;;;;;;;;;;103567;1294;545080;-71
2024/04/04 04:07:18;;;;;;;9.70;5.70;;;;;;;;;;103696;1297;545869;-70
2024/04/04 04:10:55;;;;;;;10.30;5.40;;;;;;;;;;103759;1290;545080;-71
2024/04/04 04:14:34;;;;;;;10.80;6.30;;;;;;;;;;103822;1290;544731;-71
2024/04/04 04:18:10;;;;;;;11.40;6.50;;;;;;;;;;103665;1291;545465;-71
2024/04/04 04:21:47;;;;;;;9.40;5.90;;;;;;;;;;103522;1295;545016;-69
2024/04/04 04:25:25;;;;;;;9.80;5.90;;;;;;;;;;104078;1286;545568;-72
2024/04/04 04:29:02;;;;;;;11.30;5.90;;;;;;;;;;103813;1290;544840;-71
2024/04/04 04:32:40;;;;;;;8.10;5.30;;;;;;;;;;103761;1292;545776;-70
2024/04/04 04:36:18;;;;;;;7.90;5.40;;;;;;;;;;103659;1292;544717;-71
2024/04/04 04:39:55;;;;;;;11.40;4.80;;;;;;;;;;103728;1288;545006;-71
2024/04/04 04:43:32;;;;;;;8.00;4.20;;;;;;;;;;103423;1298;545071;-70
2024/04/04 04:47:10;;;;;;;8.60;4.10;;;;;;;;;;103735;1289;545551;-70
2024/04/04 04:50:48;;;;;;;7.50;4.10;;;;;;;;;;103807;1289;546044;-70
2024/04/04 04:54:27;;;;;;;7.60;4.40;;;;;;;;;;103692;1295;545019;-72
2024/04/04 04:58:02;;;;;;;8.70;4.00;;;;;;;;;;103831;1289;544900;-75
2024/04/04 05:01:40;;;;;;;9.40;4.80;;;;;;;;;;103685;1290;544876;-72
2024/04/04 05:05:19;;;;;;;8.40;4.30;;;;;;;;;;103943;1294;544867;-71
2024/04/04 05:08:55;;;;;;;8.30;4.60;;;;;;;;;;104286;1285;544891;-73
2024/04/04 05:12:33;;;;;;;7.70;4.50;;;;;;;;;;103740;1291;544792;-71
2024/04/04 05:16:09;;;;;;;9.40;4.40;;;;;;;;;;103740;1289;544971;-73
2024/04/04 05:19:47;;;;;;;6.70;3.60;;;;;;;;;;103745;1289;545509;-71
2024/04/04 05:23:25;;;;;;;8.10;4.20;;;;;;;;;;103646;1291;545022;-71
2024/04/04 05:27:03;;;;;;;7.30;3.70;;;;;;;;;;103515;1295;545508;-71
2024/04/04 05:30:39;;;;;;;7.40;4.10;;;;;;;;;;103681;1289;545030;-70
2024/04/04 05:34:17;;;;;;;8.40;4.20;;;;;;;;;;103807;1289;544792;-71
2024/04/04 05:37:55;;;;;;;7.60;3.80;;;;;;;;;;103724;1291;545743;-71
2024/04/04 05:41:32;;;;;;;8.60;4.00;;;;;;;;;;103829;1289;545044;-71
2024/04/04 05:45:09;;;;;;;8.80;4.40;;;;;;;;;;103808;1292;544736;-72
2024/04/04 05:48:43;;;;;;;7.50;4.50;;;;;;;;;;103827;1296;544834;-71
2024/04/04 05:52:24;;;;;;;9.60;4.70;;;;;;;;;;103564;1292;545413;-70
2024/04/04 05:56:02;;;;;;;8.00;4.90;;;;;;;;;;103703;1292;544855;-70
2024/04/04 05:59:39;;;;;;;13.70;6.60;;;;;;;;;;103831;1291;544753;-71
2024/04/04 06:03:17;;;;;;;13.60;7.00;;;;;;;;;;103808;1289;545254;-70
2024/04/04 06:06:54;;;;;;;8.80;6.20;;;;;;;;;;104126;1286;544714;-72
2024/04/04 06:10:31;;;;;;;10.20;6.00;;;;;;;;;;103879;1290;544794;-71
2024/04/04 06:14:09;;;;;;;8.70;5.80;;;;;;;;;;103719;1289;544988;-71
2024/04/04 06:17:46;;;;;;;8.10;6.30;;;;;;;;;;103916;1288;544853;-71
2024/04/04 06:21:26;;;;;;;10.20;6.80;;;;;;;;;;103655;1291;546652;-71
2024/04/04 06:25:01;;;;;;;9.00;6.70;;;;;;;;;;105080;1288;544776;-69
2024/04/04 06:28:35;;;;;;;8.70;6.00;;;;;;;;;;106071;1284;545671;-69
2024/04/04 06:32:13;;;;;;;9.00;6.10;;;;;;;;;;103934;1290;545777;-69
2024/04/04 06:35:54;;;;;;;10.00;7.00;;;;;;;;;;105774;1289;545406;-68
2024/04/04 06:39:28;;;;;;;11.20;7.90;;;;;;;;;;104261;1286;544988;-69
2024/04/04 06:43:09;;;;;;;10.80;7.40;;;;;;;;;;103615;1292;545183;-71
2024/04/04 06:46:47;;;;;;;12.50;7.60;;;;;;;;;;104487;1289;544944;-71
2024/04/04 06:50:20;;;;;;;9.80;6.50;;;;;;;;;;103765;1289;545797;-69
2024/04/04 06:54:02;;;;;;;9.50;6.00;;;;;;;;;;103797;1292;545669;-68
2024/04/04 06:57:39;;;;;;;9.00;6.60;;;;;;;;;;104592;1291;545056;-69
2024/04/04 07:01:13;;;;;;;10.20;5.70;;;;;;;;;;104329;1286;546414;-71
2024/04/04 07:04:54;;;;;;;7.30;5.00;;;;;;;;;;103630;1294;547586;-71
2024/04/04 07:08:34;;;;;;;9.00;5.50;;;;;;;;;;103657;1294;545839;-71
2024/04/04 07:12:09;;;;;;;8.00;5.50;;;;;;;;;;103872;1289;544908;-71
2024/04/04 07:15:47;;;;;;;8.20;5.10;;;;;;;;;;103642;1292;544950;-72
2024/04/04 07:19:24;;;;;;;7.70;4.90;;;;;;;;;;103765;1292;544929;-70
2024/04/04 07:23:01;;;;;;;8.80;4.00;;;;;;;;;;103822;1289;545412;-72
2024/04/04 07:26:39;;;;;;;10.40;4.90;;;;;;;;;;103694;1291;545684;-71
2024/04/04 07:30:17;;;;;;;9.40;4.40;;;;;;;;;;103802;1295;544804;-71
2024/04/04 07:33:54;;;;;;;7.40;4.30;;;;;;;;;;103636;1292;545032;-70
2024/04/04 07:37:32;;;;;;;8.20;3.70;;;;;;;;;;103694;1289;546307;-71
2024/04/04 07:41:09;;;;;;;6.90;3.30;;;;;;;;;;103693;1293;545028;-72
2024/04/04 07:44:47;;;;;;;7.60;4.00;;;;;;;;;;103753;1289;544849;-72
2024/04/04 07:48:24;;;;;;;7.30;3.70;;;;;;;;;;103689;1292;544736;-71
2024/04/04 07:52:02;;;;;;;7.40;3.90;;;;;;;;;;103675;1302;545817;-72
2024/04/04 07:55:39;;;;;;;6.70;3.50;;;;;;;;;;103791;1294;546003;-71
2024/04/04 07:59:17;;;;;;;5.40;3.00;;;;;;;;;;103499;1292;544942;-71
2024/04/04 08:02:54;;;;;;;6.00;3.30;;;;;;;;;;104038;1287;546292;-71
2024/04/04 08:06:32;;;;;;;5.30;2.80;;;;;;;;;;103833;1290;546173;-71
2024/04/04 08:10:10;;;;;;;6.60;3.60;;;;;;;;;;103702;1292;545041;-71
2024/04/04 08:13:46;;;;;;;7.40;4.10;;;;;;;;;;104008;1289;546150;-71
2024/04/04 08:17:24;;;;;;;6.60;3.40;;;;;;;;;;103752;1292;544846;-72
2024/04/04 08:21:02;;;;;;;4.00;2.30;;;;;;;;;;103653;1293;544796;-70
2024/04/04 08:24:39;;;;;;;4.80;2.40;;;;;;;;;;103747;1289;545776;-70
2024/04/04 08:28:17;;;;;;;4.60;2.20;;;;;;;;;;103751;1291;544960;-72
2024/04/04 08:31:54;;;;;;;6.90;2.90;;;;;;;;;;103640;1293;545218;-70
2024/04/04 08:35:33;;;;;;;5.40;2.30;;;;;;;;;;103863;1289;545637;-70
2024/04/04 08:39:09;;;;;;;5.80;2.40;;;;;;;;;;103718;1305;544850;-72
2024/04/04 08:42:46;;;;;;;5.20;1.90;;;;;;;;;;103776;1292;546535;-73
2024/04/04 08:46:24;;;;;;;6.60;3.20;;;;;;;;;;103900;1288;545565;-71
2024/04/04 08:50:03;;;;;;;7.30;2.50;;;;;;;;;;103838;1292;544940;-70
2024/04/04 08:53:39;;;;;;;7.90;2.30;;;;;;;;;;103665;1291;545096;-72
2024/04/04 08:57:18;;;;;;;6.20;2.40;;;;;;;;;;103693;1292;545055;-73
2024/04/04 09:00:54;;;;;;;4.60;1.90;;;;;;;;;;103806;1292;544969;-72
2024/04/04 09:04:32;;;;;;;6.00;2.00;;;;;;;;;;103749;1302;545940;-72
2024/04/04 09:08:09;;;;;;;7.00;2.20;;;;;;;;;;103770;1289;545602;-71
2024/04/04 09:11:47;;;;;;;4.70;2.00;;;;;;;;;;103882;1292;544702;-70
2024/04/04 09:15:25;;;;;;;4.90;1.80;;;;;;;;;;103818;1292;544796;-72
2024/04/04 09:19:18;;;;;;;9.30;3.90;;;;;;;;;;103746;1291;546275;-71
2024/04/04 09:22:39;;;;;;;6.90;2.20;;;;;;;;;;103998;1289;546115;-73
2024/04/04 09:26:17;;;;;;;4.70;1.70;;;;;;;;;;103741;1302;544797;-72
2024/04/04 09:29:55;;;;;;;4.50;1.60;;;;;;;;;;103761;1292;544819;-72
2024/04/04 09:33:32;;;;;;;4.90;1.70;;;;;;;;;;103802;1291;545999;-70
2024/04/04 09:37:11;;;;;;;3.80;1.60;;;;;;;;;;103749;1291;545058;-71
2024/04/04 09:40:47;;;;;;;5.10;2.00;;;;;;;;;;103632;1291;544940;-70
2024/04/04 09:44:24;;;;;;;5.40;1.60;;;;;;;;;;103723;1291;544768;-71
2024/04/04 09:47:58;;;;;;;4.50;1.80;;;;;;;;;;103868;1290;544916;-69
2024/04/04 09:51:38;;;;;;;5.80;1.80;;;;;;;;;;103701;1295;545113;-73
2024/04/04 09:55:17;;;;;;;6.70;2.00;;;;;;;;;;103856;1290;545727;-71
2024/04/04 09:58:54;;;;;;;3.60;1.50;;;;;;;;;;103802;1289;545436;-70
2024/04/04 10:02:35;;;;;;;5.30;2.10;;;;;;;;;;103656;1291;545237;-72
2024/04/04 10:06:24;;;;;;;24.70;3.60;;;;;;;;;;103764;1291;544958;-70
2024/04/04 10:09:46;;;;;;;6.50;1.90;;;;;;;;;;103751;1292;544741;-71
2024/04/04 10:13:30;;;;;;;7.00;1.80;;;;;;;;;;103765;1289;545503;-70
2024/04/04 10:17:05;;;;;;;6.00;1.80;;;;;;;;;;103747;1292;545032;-72
2024/04/04 10:20:43;;;;;;;5.00;1.70;;;;;;;;;;103811;1290;544903;-71
2024/04/04 10:24:20;;;;;;;3.80;1.60;;;;;;;;;;103703;1295;544959;-71
2024/04/04 10:27:49;;;;;;;3.80;1.40;;;;;;;;;;103697;1291;545244;-73
2024/04/04 10:31:31;;;;;;;2.90;1.60;;;;;;;;;;103602;1293;545375;-70
2024/04/04 10:35:08;;;;;;;5.30;2.00;;;;;;;;;;103581;1291;545637;-70
2024/04/04 10:38:46;;;;;;;5.00;1.60;;;;;;;;;;103837;1301;545399;-71
2024/04/04 10:42:24;;;;;;;3.70;1.60;;;;;;;;;;104030;1292;544770;-72
2024/04/04 10:46:00;;;;;;;4.40;1.80;;;;;;;;;;103799;1289;544962;-70
2024/04/04 10:49:38;;;;;;;5.60;1.80;;;;;;;;;;103740;1291;545229;-72
2024/04/04 10:53:16;;;;;;;7.10;1.60;;;;;;;;;;103862;1290;545439;-72
2024/04/04 10:56:50;;;;;;;6.10;1.60;;;;;;;;;;103738;1291;544985;-71
2024/04/04 11:00:29;;;;;;;5.40;1.80;;;;;;;;;;103895;1292;545304;-70
2024/04/04 11:04:10;;;;;;;6.30;1.60;;;;;;;;;;103674;1294;545059;-71
2024/04/04 11:07:46;;;;;;;5.00;1.90;;;;;;;;;;103849;1292;544857;-71
2024/04/04 11:11:24;;;;;;;2.90;1.20;;;;;;;;;;103792;1289;544798;-73
2024/04/04 11:15:01;;;;;;;3.70;1.40;;;;;;;;;;103673;1291;545695;-72
2024/04/04 11:18:38;;;;;;;5.50;1.80;;;;;;;;;;103697;1295;545039;-71
2024/04/04 11:22:16;;;;;;;5.00;1.60;;;;;;;;;;103805;1295;544787;-71
2024/04/04 11:25:53;;;;;;;3.70;1.20;;;;;;;;;;103563;1305;544910;-73
2024/04/04 11:29:31;;;;;;;2.60;1.10;;;;;;;;;;103792;1292;544900;-71
2024/04/04 11:33:08;;;;;;;5.70;1.50;;;;;;;;;;104627;1282;544809;-71
2024/04/04 11:36:46;;;;;;;4.80;1.40;;;;;;;;;;103607;1292;545618;-72
2024/04/04 11:40:23;;;;;;;3.20;0.90;;;;;;;;;;103761;1289;544991;-71
2024/04/04 11:44:01;;;;;;;7.90;1.20;;;;;;;;;;103671;1293;544934;-71
2024/04/04 11:47:41;;;;;;;2.80;1.00;;;;;;;;;;103717;1294;545182;-71
2024/04/04 11:51:15;;;;;;;5.20;1.20;;;;;;;;;;103831;1292;544786;-70
2024/04/04 11:54:53;;;;;;;7.60;1.10;;;;;;;;;;103770;1290;545276;-71
2024/04/04 11:58:32;;;;;;;5.60;1.40;;;;;;;;;;103600;1292;544861;-73
2024/04/04 12:02:04;;;;;;;3.50;1.20;;;;;;;;;;103871;1289;545241;-71
2024/04/04 12:05:45;;;;;;;7.00;1.50;;;;;;;;;;103727;1292;545350;-69
2024/04/04 12:09:23;;;;;;;5.20;1.20;;;;;;;;;;103687;1292;545660;-71
2024/04/04 12:13:00;;;;;;;6.50;1.30;;;;;;;;;;103899;1292;544919;-69
2024/04/04 12:16:39;;;;;;;4.00;1.10;;;;;;;;;;103834;1292;544904;-71
2024/04/04 12:20:19;;;;;;;5.70;1.40;;;;;;;;;;103598;1295;545169;-71
2024/04/04 12:23:55;;;;;;;3.20;1.00;;;;;;;;;;103619;1291;545140;-71
2024/04/04 12:27:31;;;;;;;5.50;1.10;;;;;;;;;;103864;1288;545210;-71
2024/04/04 12:31:08;;;;;;;4.70;1.40;;;;;;;;;;103739;1294;544867;-71
2024/04/04 12:34:45;;;;;;;6.30;1.50;;;;;;;;;;104320;1285;545281;-70
2024/04/04 12:38:23;;;;;;;10.90;2.30;;;;;;;;;;104125;1288;545494;-73
2024/04/04 12:42:00;;;;;;;4.70;1.60;;;;;;;;;;103714;1290;545701;-71
2024/04/04 12:45:37;;;;;;;5.40;1.90;;;;;;;;;;103733;1291;544917;-70
2024/04/04 12:49:15;;;;;;;3.30;1.30;;;;;;;;;;103685;1289;545602;-77
2024/04/04 12:52:53;;;;;;;7.90;1.70;;;;;;;;;;103604;1291;544781;-71
2024/04/04 12:56:29;;;;;;;17.10;2.10;;;;;;;;;;103844;1302;545760;-72
2024/04/04 13:00:09;;;;;;;7.20;1.20;;;;;;;;;;104458;1285;544761;-73
2024/04/04 13:03:45;;;;;;;5.10;1.20;;;;;;;;;;103699;1292;545357;-70
2024/04/04 13:07:23;;;;;;;6.00;1.20;;;;;;;;;;103875;1289;545011;-70
2024/04/04 13:11:00;;;;;;;8.60;1.50;;;;;;;;;;103626;1291;545070;-70
2024/04/04 13:14:33;;;;;;;11.60;1.60;;;;;;;;;;103634;1292;545455;-71
2024/04/04 13:18:15;;;;;;;10.60;2.00;;;;;;;;;;103690;1295;545267;-70
2024/04/04 13:21:48;;;;;;;8.00;1.60;;;;;;;;;;103899;1288;545580;-75
2024/04/04 13:25:26;;;;;;;14.70;1.90;;;;;;;;;;103706;1295;545385;-71
2024/04/04 13:29:07;;;;;;;5.30;1.30;;;;;;;;;;103696;1291;545494;-69
2024/04/04 13:32:45;;;;;;;9.80;1.50;;;;;;;;;;103761;1290;545511;-70
2024/04/04 13:36:22;;;;;;;16.60;2.10;;;;;;;;;;103682;1289;545016;-73
2024/04/04 13:39:56;;;;;;;4.40;1.40;;;;;;;;;;103728;1292;544806;-70
2024/04/04 13:43:37;;;;;;;8.10;1.60;;;;;;;;;;103810;1292;544994;-69
2024/04/04 13:47:15;;;;;;;7.70;2.00;;;;;;;;;;103714;1289;544918;-73
2024/04/04 13:50:52;;;;;;;9.30;1.80;;;;;;;;;;104134;1290;544777;-69
2024/04/04 13:54:29;;;;;;;7.50;2.20;;;;;;;;;;103728;1291;545019;-69
2024/04/04 13:58:07;;;;;;;14.10;2.20;;;;;;;;;;103679;1291;545320;-71
2024/04/04 14:01:42;;;;;;;8.80;1.40;;;;;;;;;;103834;1294;544955;-71
2024/04/04 14:05:18;;;;;;;7.30;1.70;;;;;;;;;;104014;1295;545041;-71
2024/04/04 14:09:00;;;;;;;6.80;1.80;;;;;;;;;;103743;1295;545063;-71
2024/04/04 14:12:37;;;;;;;5.10;1.30;;;;;;;;;;104136;1288;544808;-72
2024/04/04 14:16:14;;;;;;;5.90;1.90;;;;;;;;;;103921;1290;544829;-70
2024/04/04 14:19:52;;;;;;;5.80;1.50;;;;;;;;;;104014;1289;544784;-70
2024/04/04 14:23:31;;;;;;;7.70;1.90;;;;;;;;;;103648;1294;545700;-71
2024/04/04 14:27:07;;;;;;;8.10;2.50;;;;;;;;;;103928;1293;544898;-69
2024/04/04 14:30:44;;;;;;;7.50;1.40;;;;;;;;;;103977;1288;544920;-70
2024/04/04 14:34:22;;;;;;;6.80;2.20;;;;;;;;;;103807;1289;544954;-71
2024/04/04 14:38:00;;;;;;;6.60;2.40;;;;;;;;;;103580;1291;545050;-71
2024/04/04 14:41:37;;;;;;;7.70;1.90;;;;;;;;;;103628;1291;545502;-70
2024/04/04 14:45:14;;;;;;;4.80;1.50;;;;;;;;;;103628;1291;544973;-69
2024/04/04 14:48:52;;;;;;;6.40;1.60;;;;;;;;;;104224;1285;545148;-70
2024/04/04 14:52:30;;;;;;;4.80;1.30;;;;;;;;;;103457;1292;545946;-70
2024/04/04 14:56:08;;;;;;;7.10;3.70;;;;;;;;;;103575;1292;544843;-68
2024/04/04 14:59:44;;;;;;;5.60;1.80;;;;;;;;;;103805;1291;545367;-69
2024/04/04 15:03:22;;;;;;;10.60;5.00;;;;;;;;;;103756;1291;545038;-69
2024/04/04 15:06:59;;;;;;;6.00;2.20;;;;;;;;;;103755;1291;544773;-72
2024/04/04 15:10:37;;;;;;;7.00;2.90;;;;;;;;;;103550;1297;545680;-71
2024/04/04 15:14:14;;;;;;;3.60;1.40;;;;;;;;;;103436;1298;544786;-70
2024/04/04 15:17:51;;;;;;;4.70;1.10;;;;;;;;;;103835;1289;545094;-74
2024/04/04 15:21:29;;;;;;;5.40;1.30;;;;;;;;;;104104;1285;544889;-71
2024/04/04 15:25:07;;;;;;;3.90;1.20;;;;;;;;;;103840;1292;544773;-75
2024/04/04 15:28:44;;;;;;;8.50;1.90;;;;;;;;;;103664;1289;544732;-71
2024/04/04 15:32:22;;;;;;;7.90;2.10;;;;;;;;;;103653;1291;545507;-69
2024/04/04 15:35:56;;;;;;;8.50;2.30;;;;;;;;;;103904;1292;545009;-71
2024/04/04 15:39:37;;;;;;;14.00;6.70;;;;;;;;;;103656;1292;545423;-73
2024/04/04 15:43:14;;;;;;;12.10;3.90;;;;;;;;;;103555;1295;544831;-73
2024/04/04 15:46:48;;;;;;;13.40;2.90;;;;;;;;;;104104;1289;544875;-70
2024/04/04 15:50:25;;;;;;;7.10;2.10;;;;;;;;;;104209;1289;544714;-67
2024/04/04 15:54:06;;;;;;;12.10;3.90;;;;;;;;;;104399;1286;545697;-68
2024/04/04 15:57:40;;;;;;;9.50;2.10;;;;;;;;;;103459;1288;545017;-70
2024/04/04 16:01:21;;;;;;;7.10;1.50;;;;;;;;;;103367;1288;545018;-68
2024/04/04 16:05:00;;;;;;;8.60;1.80;;;;;;;;;;103203;1291;545540;-68
2024/04/04 16:08:36;;;;;;;6.90;1.50;;;;;;;;;;103662;1289;544907;-69
2024/04/04 16:12:14;;;;;;;7.50;2.00;;;;;;;;;;103208;1294;545343;-71
2024/04/04 16:15:52;;;;;;;5.80;1.90;;;;;;;;;;103629;1292;545654;-70
2024/04/04 16:19:30;;;;;;;8.50;2.30;;;;;;;;;;103445;1301;545521;-70
2024/04/04 16:23:03;;;;;;;9.00;2.30;;;;;;;;;;103301;1290;545507;-67
2024/04/04 16:26:44;;;;;;;5.50;1.80;;;;;;;;;;103936;1292;545131;-73
2024/04/04 16:30:21;;;;;;;6.00;2.00;;;;;;;;;;103623;1293;546027;-74
2024/04/04 16:33:55;;;;;;;6.00;2.10;;;;;;;;;;104022;1289;545750;-69
2024/04/04 16:37:37;;;;;;;5.60;1.60;;;;;;;;;;103691;1302;545404;-73
2024/04/04 16:41:14;;;;;;;5.30;1.40;;;;;;;;;;103673;1295;544859;-70
2024/04/04 16:44:51;;;;;;;5.10;1.50;;;;;;;;;;103827;1290;544972;-70
2024/04/04 16:48:29;;;;;;;6.20;1.60;;;;;;;;;;103678;1295;545677;-71
2024/04/04 16:52:06;;;;;;;8.70;2.00;;;;;;;;;;103463;1291;544765;-76
2024/04/04 16:55:44;;;;;;;5.40;1.80;;;;;;;;;;103687;1291;545009;-70
2024/04/04 16:59:21;;;;;;;8.00;2.40;;;;;;;;;;103673;1289;546146;-75
2024/04/04 17:02:59;;;;;;;12.50;5.20;;;;;;;;;;104196;1286;544922;-69
2024/04/04 17:06:37;;;;;;;8.90;3.50;;;;;;;;;;103805;1289;545008;-71
2024/04/04 17:10:11;;;;;;;11.70;4.30;;;;;;;;;;103819;1289;544922;-76
2024/04/04 17:13:56;;;;;;;5.90;2.10;;;;;;;;;;103794;1289;545096;-72
2024/04/04 17:17:29;;;;;;;7.90;2.90;;;;;;;;;;103677;1293;547052;-69
2024/04/04 17:21:06;;;;;;;6.50;1.90;;;;;;;;;;103859;1292;544709;-69
2024/04/04 17:24:45;;;;;;;8.50;2.00;;;;;;;;;;104042;1288;545585;-71
2024/04/04 17:28:21;;;;;;;6.70;2.20;;;;;;;;;;103725;1291;545007;-74
2024/04/04 17:31:59;;;;;;;7.30;2.90;;;;;;;;;;103730;1288;544807;-68
2024/04/04 17:35:36;;;;;;;7.00;2.70;;;;;;;;;;103839;1295;545033;-68
2024/04/04 17:39:14;;;;;;;7.90;3.80;;;;;;;;;;103627;1292;544946;-69
2024/04/04 17:42:51;;;;;;;9.80;3.50;;;;;;;;;;103725;1295;544955;-70
2024/04/04 17:46:30;;;;;;;7.00;2.10;;;;;;;;;;103518;1295;545684;-69
2024/04/04 17:50:04;;;;;;;6.10;1.90;;;;;;;;;;103645;1293;544879;-69
2024/04/04 17:53:45;;;;;;;6.20;2.30;;;;;;;;;;103692;1289;545646;-70
2024/04/04 17:57:21;;;;;;;5.60;2.20;;;;;;;;;;103651;1291;544926;-71
2024/04/04 18:00:58;;;;;;;8.00;2.40;;;;;;;;;;103804;1291;545622;-77
2024/04/04 18:04:36;;;;;;;8.20;2.50;;;;;;;;;;104080;1289;545123;-69
2024/04/04 18:08:14;;;;;;;6.30;2.20;;;;;;;;;;103738;1295;544907;-72
2024/04/04 18:11:51;;;;;;;8.60;2.10;;;;;;;;;;103735;1290;544798;-69
2024/04/04 18:15:28;;;;;;;8.50;3.40;;;;;;;;;;103673;1291;546038;-70
2024/04/04 18:19:05;;;;;;;6.00;2.50;;;;;;;;;;103665;1291;544769;-73
2024/04/04 18:22:44;;;;;;;7.80;3.70;;;;;;;;;;103810;1290;544768;-69
2024/04/04 18:26:17;;;;;;;7.50;3.00;;;;;;;;;;103725;1291;545290;-73
2024/04/04 18:29:59;;;;;;;7.40;2.40;;;;;;;;;;103723;1294;544932;-74
2024/04/04 18:33:32;;;;;;;6.80;2.40;;;;;;;;;;103950;1289;544889;-71
2024/04/04 18:37:16;;;;;;;7.30;2.70;;;;;;;;;;103723;1292;544887;-70
2024/04/04 18:40:51;;;;;;;6.40;2.20;;;;;;;;;;104182;1282;545579;-69
2024/04/04 18:44:25;;;;;;;5.40;1.70;;;;;;;;;;104429;1287;545405;-68
2024/04/04 18:48:02;;;;;;;5.50;1.60;;;;;;;;;;106211;1285;544712;-69
2024/04/04 18:51:40;;;;;;;5.00;1.70;;;;;;;;;;104639;1285;545536;-70
2024/04/04 18:55:17;;;;;;;7.20;1.70;;;;;;;;;;103768;1289;545114;-68
2024/04/04 18:58:58;;;;;;;6.10;1.70;;;;;;;;;;103832;1292;544769;-74
2024/04/04 19:02:36;;;;;;;6.20;1.70;;;;;;;;;;103654;1293;545020;-72
2024/04/04 19:06:14;;;;;;;5.30;1.50;;;;;;;;;;103552;1297;544593;-68
2024/04/04 19:09:56;;;;;;;6.40;1.70;;;;;;;;;;103858;1290;545570;-69
2024/04/04 19:13:29;;;;;;;3.30;1.20;;;;;;;;;;104356;1285;544888;-69
2024/04/04 19:17:05;;;;;;;4.20;1.10;;;;;;;;;;103809;1295;545413;-69
2024/04/04 19:20:43;;;;;;;4.30;1.50;;;;;;;;;;103875;1289;544788;-71
2024/04/04 19:24:21;;;;;;;3.10;1.10;;;;;;;;;;103472;1294;545376;-72
2024/04/04 19:27:59;;;;;;;5.60;1.80;;;;;;;;;;103643;1294;544913;-69
2024/04/04 19:31:36;;;;;;;6.30;1.70;;;;;;;;;;103972;1303;545462;-70
2024/04/04 19:35:13;;;;;;;6.60;2.10;;;;;;;;;;103655;1292;545464;-70
2024/04/04 19:38:51;;;;;;;5.00;1.70;;;;;;;;;;103616;1292;545581;-76
2024/04/04 19:42:24;;;;;;;3.60;1.40;;;;;;;;;;103775;1289;545526;-72
2024/04/04 19:46:03;;;;;;;7.80;2.60;;;;;;;;;;103870;1290;545424;-70
2024/04/04 19:49:43;;;;;;;5.70;1.60;;;;;;;;;;103669;1292;544828;-70
2024/04/04 19:53:21;;;;;;;5.80;2.10;;;;;;;;;;103737;1299;544924;-71
2024/04/04 19:56:59;;;;;;;5.80;1.90;;;;;;;;;;103935;1290;545704;-71
2024/04/04 20:00:37;;;;;;;4.90;1.60;;;;;;;;;;103850;1292;544956;-69
2024/04/04 20:04:16;;;;;;;4.00;1.40;;;;;;;;;;103985;1291;545008;-68
2024/04/04 20:07:50;;;;;;;5.90;1.90;;;;;;;;;;104281;1286;545028;-75
2024/04/04 20:11:28;;;;;;;11.40;5.20;;;;;;;;;;104624;1281;544763;-69
2024/04/04 20:15:06;;;;;;;7.40;3.10;;;;;;;;;;103861;1288;545564;-71
2024/04/04 20:18:44;;;;;;;4.50;1.70;;;;;;;;;;103695;1292;545195;-70
2024/04/04 20:22:21;;;;;;;6.00;2.00;;;;;;;;;;104280;1288;545260;-69
2024/04/04 20:25:59;;;;;;;4.80;1.80;;;;;;;;;;103753;1291;545292;-73
2024/04/04 20:29:35;;;;;;;6.30;1.90;;;;;;;;;;103783;1291;545388;-69
2024/04/04 20:33:14;;;;;;;7.60;2.80;;;;;;;;;;103579;1291;545272;-69
2024/04/04 20:36:46;;;;;;;7.10;2.10;;;;;;;;;;104714;1286;545437;-70
2024/04/04 20:40:28;;;;;;;6.90;2.40;;;;;;;;;;103781;1293;545719;-69
2024/04/04 20:44:05;;;;;;;7.00;3.30;;;;;;;;;;103714;1291;545543;-69
2024/04/04 20:47:43;;;;;;;5.60;2.00;;;;;;;;;;103655;1291;544803;-70
2024/04/04 20:51:20;;;;;;;9.10;4.80;;;;;;;;;;103617;1292;545753;-70
2024/04/04 20:54:58;;;;;;;5.30;1.90;;;;;;;;;;103769;1292;545023;-70
2024/04/04 20:58:35;;;;;;;3.80;1.40;;;;;;;;;;103753;1292;545621;-71
2024/04/04 21:02:15;;;;;;;4.20;1.50;;;;;;;;;;104033;1286;545377;-70